createdAt,value
2022-10-09T00:01:12.059Z,7.54
2022-10-09T00:03:41.281Z,7.56
2022-10-09T00:06:10.290Z,7.55
2022-10-09T00:08:41.486Z,7.53
2022-10-09T00:11:10.514Z,7.45
2022-10-09T00:13:38.312Z,7.42
2022-10-09T00:16:07.286Z,7.38
2022-10-09T00:18:36.027Z,7.35
2022-10-09T00:21:04.654Z,7.33
2022-10-09T00:23:32.501Z,7.32
2022-10-09T00:26:01.279Z,7.31
2022-10-09T00:28:30.144Z,7.25
2022-10-09T00:30:57.799Z,7.24
2022-10-09T00:33:25.412Z,7.22
2022-10-09T00:35:53.132Z,7.22
2022-10-09T00:38:21.457Z,7.22
2022-10-09T00:40:49.074Z,7.30
2022-10-09T00:43:18.877Z,7.28
2022-10-09T00:45:51.122Z,7.31
2022-10-09T00:48:18.671Z,7.35
2022-10-09T00:50:55.992Z,7.46
2022-10-09T00:53:24.345Z,7.51
2022-10-09T00:55:52.703Z,7.49
2022-10-09T00:58:20.881Z,7.41
2022-10-09T01:00:49.869Z,7.33
2022-10-09T01:03:17.409Z,7.30
2022-10-09T01:06:02.767Z,7.37
2022-10-09T01:08:39.464Z,7.39
2022-10-09T01:11:13.671Z,7.41
2022-10-09T01:13:48.896Z,7.41
2022-10-09T01:16:27.619Z,7.34
2022-10-09T01:19:22.505Z,7.29
2022-10-09T01:22:03.724Z,7.29
2022-10-09T01:24:38.439Z,7.28
2022-10-09T01:27:09.042Z,7.27
2022-10-09T01:29:41.286Z,7.27
2022-10-09T01:32:09.597Z,7.27
2022-10-09T01:34:37.754Z,7.25
2022-10-09T01:37:05.283Z,7.21
2022-10-09T01:39:33.362Z,7.17
2022-10-09T01:42:00.944Z,7.10
2022-10-09T01:44:30.242Z,7.01
2022-10-09T01:46:59.373Z,6.95
2022-10-09T01:49:50.134Z,6.91
2022-10-09T01:52:24.713Z,6.87
2022-10-09T01:55:14.474Z,6.85
2022-10-09T01:58:05.207Z,6.84
2022-10-09T02:00:42.149Z,6.85
2022-10-09T02:03:11.389Z,6.84
2022-10-09T02:05:39.125Z,6.84
2022-10-09T02:08:06.776Z,6.91
2022-10-09T02:10:34.418Z,6.91
2022-10-09T02:13:02.554Z,6.91
2022-10-09T02:15:37.590Z,6.87
2022-10-09T02:18:15.253Z,6.79
2022-10-09T02:20:46.051Z,6.76
2022-10-09T02:23:13.777Z,6.75
2022-10-09T02:25:41.598Z,6.74
2022-10-09T02:28:11.589Z,6.75
2022-10-09T02:30:46.390Z,6.72
2022-10-09T02:33:14.060Z,6.69
2022-10-09T02:35:42.001Z,6.71
2022-10-09T02:38:09.592Z,6.71
2022-10-09T02:40:37.137Z,6.67
2022-10-09T02:43:04.896Z,6.68
2022-10-09T02:45:32.558Z,6.65
2022-10-09T02:48:00.488Z,6.66
2022-10-09T02:50:28.240Z,6.63
2022-10-09T02:52:57.239Z,6.61
2022-10-09T02:55:24.922Z,6.56
2022-10-09T02:57:52.562Z,6.55
2022-10-09T03:00:20.213Z,6.52
2022-10-09T03:02:48.223Z,6.54
2022-10-09T03:05:16.057Z,6.53
2022-10-09T03:07:51.252Z,6.51
2022-10-09T03:10:19.939Z,6.50
2022-10-09T03:12:47.890Z,6.47
2022-10-09T03:15:16.730Z,6.45
2022-10-09T03:17:44.297Z,6.43
2022-10-09T03:20:11.910Z,6.39
2022-10-09T03:22:39.641Z,6.37
2022-10-09T03:25:07.952Z,6.30
2022-10-09T03:27:35.926Z,6.29
2022-10-09T03:30:04.441Z,6.25
2022-10-09T03:32:32.277Z,6.24
2022-10-09T03:35:00.102Z,6.23
2022-10-09T03:37:27.832Z,6.24
2022-10-09T03:39:55.536Z,6.24
2022-10-09T03:42:23.204Z,6.21
2022-10-09T03:44:50.781Z,6.20
2022-10-09T03:47:18.415Z,6.19
2022-10-09T03:49:46.209Z,6.23
2022-10-09T03:52:13.782Z,6.23
2022-10-09T03:54:41.344Z,6.26
2022-10-09T03:57:08.898Z,6.31
2022-10-09T03:59:37.599Z,6.30
2022-10-09T04:02:05.196Z,6.40
2022-10-09T04:04:32.742Z,6.48
2022-10-09T04:07:00.839Z,6.54
2022-10-09T04:09:28.488Z,6.58
2022-10-09T04:11:57.066Z,6.60
2022-10-09T04:14:24.857Z,6.64
2022-10-09T04:16:52.427Z,6.67
2022-10-09T04:19:23.046Z,6.74
2022-10-09T04:21:52.147Z,6.82
2022-10-09T04:24:19.767Z,6.91
2022-10-09T04:26:47.362Z,6.98
2022-10-09T04:29:15.404Z,7.05
2022-10-09T04:31:43.008Z,7.17
2022-10-09T04:34:11.047Z,7.24
2022-10-09T04:36:38.716Z,7.35
2022-10-09T04:39:06.377Z,7.46
2022-10-09T04:41:38.234Z,7.53
2022-10-09T04:44:06.266Z,7.62
2022-10-09T04:46:34.116Z,7.71
2022-10-09T04:49:01.931Z,7.79
2022-10-09T04:51:29.581Z,7.92
2022-10-09T04:54:00.437Z,8.06
2022-10-09T04:56:28.577Z,8.21
2022-10-09T04:58:56.154Z,8.36
2022-10-09T05:01:25.629Z,8.50
2022-10-09T05:03:53.580Z,8.64
2022-10-09T05:06:21.829Z,8.76
2022-10-09T05:08:49.804Z,8.89
2022-10-09T05:11:19.683Z,9.04
2022-10-09T05:13:49.116Z,9.16
2022-10-09T05:16:21.671Z,9.30
2022-10-09T05:18:53.402Z,9.46
2022-10-09T05:21:21.221Z,9.61
2022-10-09T05:23:49.722Z,9.79
2022-10-09T05:26:18.725Z,9.90
2022-10-09T05:28:48.279Z,10.04
2022-10-09T05:31:24.303Z,10.22
2022-10-09T05:33:52.701Z,10.34
2022-10-09T05:36:21.063Z,10.51
2022-10-09T05:38:49.444Z,10.68
2022-10-09T05:41:17.946Z,10.83
2022-10-09T05:43:47.132Z,11.03
2022-10-09T05:46:23.525Z,11.22
2022-10-09T05:48:53.974Z,11.41
2022-10-09T05:51:23.235Z,11.59
2022-10-09T05:53:51.420Z,11.78
2022-10-09T05:56:21.197Z,11.95
2022-10-09T05:58:57.346Z,12.12
2022-10-09T06:01:29.455Z,12.24
2022-10-09T06:03:58.844Z,12.26
2022-10-09T06:06:30.872Z,12.26
2022-10-09T06:08:58.620Z,12.32
2022-10-09T06:11:28.752Z,12.39
2022-10-09T06:14:00.506Z,12.55
2022-10-09T06:16:32.798Z,12.66
2022-10-09T06:19:00.913Z,12.77
2022-10-09T06:21:29.026Z,12.90
2022-10-09T06:23:58.116Z,12.97
2022-10-09T06:26:30.986Z,13.02
2022-10-09T06:28:59.979Z,13.15
2022-10-09T06:31:31.889Z,13.24
2022-10-09T06:34:00.350Z,13.38
2022-10-09T06:36:29.524Z,13.45
2022-10-09T06:39:03.555Z,13.48
2022-10-09T06:41:31.519Z,13.57
2022-10-09T06:44:00.683Z,13.65
2022-10-09T06:46:30.343Z,13.72
2022-10-09T06:48:59.193Z,13.85
2022-10-09T06:51:28.266Z,13.92
2022-10-09T06:53:57.116Z,14.05
2022-10-09T06:56:25.952Z,14.13
2022-10-09T06:58:53.523Z,14.15
2022-10-09T07:01:27.036Z,14.26
2022-10-09T07:03:58.957Z,14.30
2022-10-09T07:06:29.554Z,14.32
2022-10-09T07:09:00.771Z,14.34
2022-10-09T07:11:33.384Z,14.38
2022-10-09T07:14:01.887Z,14.47
2022-10-09T07:16:40.514Z,14.56
2022-10-09T07:19:11.333Z,14.66
2022-10-09T07:21:40.567Z,14.74
2022-10-09T07:24:08.268Z,14.91
2022-10-09T07:26:37.785Z,15.02
2022-10-09T07:29:06.388Z,15.05
2022-10-09T07:31:34.209Z,15.03
2022-10-09T07:34:01.821Z,15.03
2022-10-09T07:36:29.714Z,15.15
2022-10-09T07:38:58.506Z,15.26
2022-10-09T07:41:27.652Z,15.39
2022-10-09T07:43:55.699Z,15.46
2022-10-09T07:46:24.287Z,15.60
2022-10-09T07:48:52.405Z,15.59
2022-10-09T07:51:24.409Z,15.73
2022-10-09T07:53:52.193Z,15.74
2022-10-09T07:56:21.992Z,15.80
2022-10-09T07:58:50.633Z,15.89
2022-10-09T08:01:20.345Z,16.03
2022-10-09T08:03:48.580Z,16.07
2022-10-09T08:06:16.988Z,16.14
2022-10-09T08:08:44.947Z,16.26
2022-10-09T08:11:14.289Z,16.32
2022-10-09T08:13:43.164Z,16.31
2022-10-09T08:16:11.260Z,16.43
2022-10-09T08:18:38.821Z,16.44
2022-10-09T08:21:08.263Z,16.43
2022-10-09T08:23:36.090Z,16.40
2022-10-09T08:26:04.149Z,16.38
2022-10-09T08:28:32.605Z,16.47
2022-10-09T08:31:00.352Z,16.49
2022-10-09T08:33:28.040Z,16.69
2022-10-09T08:35:55.600Z,16.78
2022-10-09T08:38:46.158Z,16.83
2022-10-09T08:41:33.355Z,16.75
2022-10-09T08:44:13.383Z,16.87
2022-10-09T08:47:09.846Z,17.09
2022-10-09T08:49:40.121Z,17.32
2022-10-09T08:52:29.578Z,17.57
2022-10-09T08:54:58.944Z,17.64
2022-10-09T08:57:27.703Z,17.83
2022-10-09T08:59:55.554Z,17.57
2022-10-09T09:02:33.644Z,17.56
2022-10-09T09:05:04.253Z,17.83
2022-10-09T09:07:35.769Z,17.96
2022-10-09T09:10:06.614Z,17.96
2022-10-09T09:12:53.617Z,18.02
2022-10-09T09:15:40.202Z,17.95
2022-10-09T09:18:46.459Z,18.17
2022-10-09T09:21:45.241Z,18.11
2022-10-09T09:24:34.895Z,18.09
2022-10-09T09:27:06.539Z,18.18
2022-10-09T09:29:38.819Z,18.38
2022-10-09T09:32:07.645Z,18.54
2022-10-09T09:34:39.604Z,18.68
2022-10-09T09:37:10.231Z,18.66
2022-10-09T09:42:27.430Z,18.78
2022-10-09T09:45:02.307Z,18.78
2022-10-09T09:47:42.221Z,18.75
2022-10-09T09:50:23.464Z,18.95
2022-10-09T09:52:57.694Z,18.94
2022-10-09T09:55:27.724Z,19.02
2022-10-09T09:58:04.007Z,19.09
2022-10-09T10:00:31.830Z,19.27
2022-10-09T10:03:14.016Z,19.41
2022-10-09T10:05:42.673Z,19.57
2022-10-09T10:08:30.222Z,19.41
2022-10-09T10:11:02.868Z,19.45
2022-10-09T10:13:38.289Z,19.67
2022-10-09T10:16:07.040Z,19.62
2022-10-09T10:18:39.624Z,19.73
2022-10-09T10:21:14.245Z,19.75
2022-10-09T10:24:03.955Z,19.68
2022-10-09T10:26:49.070Z,19.54
2022-10-09T10:29:20.012Z,19.27
2022-10-09T10:31:51.520Z,19.23
2022-10-09T10:34:23.433Z,19.20
2022-10-09T10:37:01.063Z,19.03
2022-10-09T10:39:40.736Z,19.11
2022-10-09T10:42:12.477Z,18.98
2022-10-09T10:44:50.455Z,19.01
2022-10-09T10:47:20.364Z,18.98
2022-10-09T10:49:48.173Z,19.14
2022-10-09T10:52:44.931Z,19.16
2022-10-09T10:55:21.434Z,19.07
2022-10-09T10:57:49.170Z,19.12
2022-10-09T11:00:17.732Z,19.31
2022-10-09T11:03:11.113Z,19.18
2022-10-09T11:05:51.482Z,19.39
2022-10-09T11:08:22.302Z,19.23
2022-10-09T11:11:03.745Z,19.12
2022-10-09T11:13:40.617Z,19.08
2022-10-09T11:16:22.321Z,19.07
2022-10-09T11:19:20.878Z,19.11
2022-10-09T11:22:20.805Z,19.12
2022-10-09T11:25:07.069Z,19.09
2022-10-09T11:27:49.224Z,19.15
2022-10-09T11:30:17.461Z,19.04
2022-10-09T11:33:10.373Z,19.04
2022-10-09T11:35:42.706Z,19.09
2022-10-09T11:38:31.918Z,19.19
2022-10-09T11:41:02.658Z,19.12
2022-10-09T11:43:43.445Z,19.29
2022-10-09T11:46:18.820Z,19.38
2022-10-09T11:49:07.714Z,19.41
2022-10-09T11:51:39.469Z,19.42
2022-10-09T11:54:13.633Z,19.42
2022-10-09T11:56:55.439Z,19.39
2022-10-09T11:59:36.186Z,19.42
2022-10-09T12:02:26.416Z,19.47
2022-10-09T12:04:55.644Z,19.39
2022-10-09T12:07:33.127Z,19.37
2022-10-09T12:10:22.217Z,19.44
2022-10-09T12:13:03.573Z,19.29
2022-10-09T12:15:37.137Z,19.24
2022-10-09T12:18:24.786Z,19.14
2022-10-09T12:20:52.418Z,19.13
2022-10-09T12:23:27.208Z,19.08
2022-10-09T12:25:55.865Z,18.99
2022-10-09T12:28:34.816Z,18.92
2022-10-09T12:31:04.017Z,18.97
2022-10-09T12:33:53.655Z,18.94
2022-10-09T12:36:26.375Z,18.93
2022-10-09T12:38:54.061Z,18.86
2022-10-09T12:41:30.568Z,18.94
2022-10-09T12:43:58.210Z,18.99
2022-10-09T12:46:37.478Z,19.03
2022-10-09T12:49:06.345Z,19.03
2022-10-09T12:51:34.025Z,19.00
2022-10-09T12:54:06.860Z,18.98
2022-10-09T12:56:38.240Z,18.96
2022-10-09T12:59:09.481Z,19.02
2022-10-09T13:01:38.018Z,19.03
2022-10-09T13:04:06.244Z,18.90
2022-10-09T13:06:46.370Z,18.93
2022-10-09T13:09:25.456Z,18.96
2022-10-09T13:12:21.221Z,18.93
2022-10-09T13:15:03.648Z,18.96
2022-10-09T13:17:39.845Z,18.93
2022-10-09T13:20:16.560Z,18.99
2022-10-09T13:23:03.770Z,19.02
2022-10-09T13:25:36.400Z,18.99
2022-10-09T13:28:05.217Z,18.96
2022-10-09T13:30:33.111Z,18.97
2022-10-09T13:33:00.958Z,18.93
2022-10-09T13:35:28.649Z,18.89
2022-10-09T13:37:56.333Z,18.87
2022-10-09T13:40:24.363Z,18.85
2022-10-09T13:42:56.104Z,18.81
2022-10-09T13:45:23.847Z,18.80
2022-10-09T13:47:52.635Z,18.78
2022-10-09T13:50:20.527Z,18.75
2022-10-09T13:52:48.100Z,18.72
2022-10-09T13:55:15.781Z,18.70
2022-10-09T13:57:44.136Z,18.64
2022-10-09T14:00:12.680Z,18.56
2022-10-09T14:02:40.449Z,18.52
2022-10-09T14:05:08.209Z,18.46
2022-10-09T14:07:36.775Z,18.43
2022-10-09T14:10:05.204Z,18.32
2022-10-09T14:12:32.843Z,18.31
2022-10-09T14:15:00.425Z,18.30
2022-10-09T14:17:28.684Z,18.25
2022-10-09T14:19:56.344Z,18.24
2022-10-09T14:22:23.874Z,18.22
2022-10-09T14:24:51.516Z,18.20
2022-10-09T14:27:19.317Z,18.19
2022-10-09T14:29:49.766Z,18.16
2022-10-09T14:32:18.830Z,18.14
2022-10-09T14:34:46.653Z,18.12
2022-10-09T14:37:29.621Z,18.12
2022-10-09T14:40:02.252Z,18.06
2022-10-09T14:42:30.026Z,18.06
2022-10-09T14:44:57.723Z,18.01
2022-10-09T14:47:26.946Z,17.96
2022-10-09T14:49:54.666Z,17.88
2022-10-09T14:52:22.267Z,17.85
2022-10-09T14:54:49.903Z,17.78
2022-10-09T14:57:17.649Z,17.72
2022-10-09T14:59:45.349Z,17.68
2022-10-09T15:02:14.636Z,17.64
2022-10-09T15:04:42.509Z,17.58
2022-10-09T15:07:10.960Z,17.57
2022-10-09T15:09:44.482Z,17.53
2022-10-09T15:12:12.183Z,17.53
2022-10-09T15:14:40.017Z,17.46
2022-10-09T15:17:09.087Z,17.42
2022-10-09T15:19:40.015Z,17.34
2022-10-09T15:22:07.840Z,17.30
2022-10-09T15:24:35.677Z,17.30
2022-10-09T15:27:03.622Z,17.25
2022-10-09T15:29:31.268Z,17.24
2022-10-09T15:31:59.098Z,17.22
2022-10-09T15:34:27.026Z,17.19
2022-10-09T15:36:54.570Z,17.17
2022-10-09T15:39:22.313Z,17.14
2022-10-09T15:41:50.477Z,17.10
2022-10-09T15:44:19.741Z,17.08
2022-10-09T15:46:47.739Z,17.04
2022-10-09T15:49:15.221Z,16.99
2022-10-09T15:51:42.901Z,16.96
2022-10-09T15:54:11.069Z,16.92
2022-10-09T15:56:40.219Z,16.88
2022-10-09T15:59:10.734Z,16.88
2022-10-09T16:01:38.768Z,16.85
2022-10-09T16:04:06.595Z,16.84
2022-10-09T16:06:34.748Z,16.83
2022-10-09T16:09:04.154Z,16.80
2022-10-09T16:11:32.147Z,16.82
2022-10-09T16:14:00.664Z,16.79
2022-10-09T16:16:33.247Z,16.73
2022-10-09T16:19:02.404Z,16.71
2022-10-09T16:21:30.318Z,16.72
2022-10-09T16:23:59.457Z,16.71
2022-10-09T16:26:28.582Z,16.69
2022-10-09T16:28:56.320Z,16.69
2022-10-09T16:31:28.840Z,16.65
2022-10-09T16:33:58.680Z,16.62
2022-10-09T16:36:26.458Z,16.57
2022-10-09T16:38:54.026Z,16.56
2022-10-09T16:41:22.284Z,16.56
2022-10-09T16:43:54.929Z,16.56
2022-10-09T16:46:27.312Z,16.52
2022-10-09T16:48:55.738Z,16.51
2022-10-09T16:51:25.527Z,16.51
2022-10-09T16:53:54.408Z,16.45
2022-10-09T16:56:23.772Z,16.42
2022-10-09T16:58:54.860Z,16.47
2022-10-09T17:01:22.577Z,16.48
2022-10-09T17:03:50.199Z,16.51
2022-10-09T17:06:23.880Z,16.48
2022-10-09T17:08:53.279Z,16.49
2022-10-09T17:11:21.129Z,16.48
2022-10-09T17:13:48.740Z,16.48
2022-10-09T17:16:20.749Z,16.47
2022-10-09T17:18:48.421Z,16.41
2022-10-09T17:21:16.740Z,16.38
2022-10-09T17:23:45.186Z,16.35
2022-10-09T17:26:14.653Z,16.30
2022-10-09T17:28:42.782Z,16.24
2022-10-09T17:31:16.564Z,16.17
2022-10-09T17:33:46.372Z,16.09
2022-10-09T17:36:20.880Z,16.05
2022-10-09T17:38:50.005Z,15.97
2022-10-09T17:41:18.972Z,15.91
2022-10-09T17:43:47.452Z,15.85
2022-10-09T17:46:15.609Z,15.79
2022-10-09T17:48:45.392Z,15.75
2022-10-09T17:51:17.550Z,15.73
2022-10-09T17:53:45.761Z,15.67
2022-10-09T17:56:13.586Z,15.60
2022-10-09T17:58:42.877Z,15.58
2022-10-09T18:01:10.805Z,15.56
2022-10-09T18:03:38.484Z,15.52
2022-10-09T18:06:07.966Z,15.46
2022-10-09T18:08:36.645Z,15.42
2022-10-09T18:11:08.065Z,15.39
2022-10-09T18:13:38.129Z,15.32
2022-10-09T18:16:09.697Z,15.24
2022-10-09T18:18:37.636Z,15.13
2022-10-09T18:21:08.397Z,15.01
2022-10-09T18:23:36.654Z,14.87
2022-10-09T18:26:11.145Z,14.73
2022-10-09T18:28:38.834Z,14.58
2022-10-09T18:31:11.209Z,14.43
2022-10-09T18:33:39.178Z,14.30
2022-10-09T18:36:19.789Z,14.21
2022-10-09T18:38:48.959Z,14.09
2022-10-09T18:41:17.083Z,13.98
2022-10-09T18:43:44.732Z,13.90
2022-10-09T18:46:12.545Z,13.79
2022-10-09T18:48:40.685Z,13.72
2022-10-09T18:51:13.723Z,13.66
2022-10-09T18:53:44.111Z,13.63
2022-10-09T18:56:11.775Z,13.61
2022-10-09T18:58:40.713Z,13.62
2022-10-09T19:01:08.509Z,13.61
2022-10-09T19:03:37.814Z,13.57
2022-10-09T19:06:06.159Z,13.49
2022-10-09T19:08:36.653Z,13.40
2022-10-09T19:11:04.491Z,13.32
2022-10-09T19:13:32.132Z,13.29
2022-10-09T19:16:00.338Z,13.21
2022-10-09T19:18:28.516Z,13.19
2022-10-09T19:20:57.734Z,13.19
2022-10-09T19:23:27.909Z,13.15
2022-10-09T19:25:57.288Z,13.11
2022-10-09T19:28:27.806Z,13.07
2022-10-09T19:30:56.065Z,13.00
2022-10-09T19:33:23.728Z,12.95
2022-10-09T19:35:53.167Z,12.97
2022-10-09T19:38:21.196Z,13.09
2022-10-09T19:40:49.019Z,13.16
2022-10-09T19:43:17.051Z,13.21
2022-10-09T19:45:44.903Z,13.27
2022-10-09T19:48:18.221Z,13.36
2022-10-09T19:50:46.344Z,13.44
2022-10-09T19:53:14.163Z,13.48
2022-10-09T19:55:41.966Z,13.47
2022-10-09T19:58:09.653Z,13.47
2022-10-09T20:00:46.743Z,13.44
2022-10-09T20:03:14.516Z,13.42
2022-10-09T20:05:42.856Z,13.36
2022-10-09T20:08:18.049Z,13.31
2022-10-09T20:10:48.081Z,13.25
2022-10-09T20:13:15.745Z,13.15
2022-10-09T20:15:46.084Z,13.15
2022-10-09T20:18:14.694Z,13.15
2022-10-09T20:20:47.311Z,13.12
2022-10-09T20:23:15.201Z,13.10
2022-10-09T20:25:42.714Z,13.16
2022-10-09T20:28:10.598Z,13.21
2022-10-09T20:30:38.361Z,13.26
2022-10-09T20:33:07.406Z,13.24
2022-10-09T20:35:43.215Z,13.30
2022-10-09T20:38:11.064Z,13.35
2022-10-09T20:40:38.649Z,13.25
2022-10-09T20:43:06.445Z,13.32
2022-10-09T20:45:41.647Z,13.33
2022-10-09T20:48:09.561Z,13.28
2022-10-09T20:50:40.342Z,13.36
2022-10-09T20:53:10.041Z,13.32
2022-10-09T20:55:38.436Z,13.33
2022-10-09T20:58:06.149Z,13.32
2022-10-09T21:00:33.899Z,13.35
2022-10-09T21:03:03.964Z,13.38
2022-10-09T21:05:31.721Z,13.40
2022-10-09T21:07:59.332Z,13.50
2022-10-09T21:10:27.025Z,13.52
2022-10-09T21:12:54.662Z,13.48
2022-10-09T21:15:24.831Z,13.46
2022-10-09T21:17:52.473Z,13.40
2022-10-09T21:20:20.168Z,13.38
2022-10-09T21:22:48.423Z,13.35
2022-10-09T21:25:16.275Z,13.35
2022-10-09T21:27:43.960Z,13.31
2022-10-09T21:30:12.338Z,13.24
2022-10-09T21:32:39.979Z,13.16
2022-10-09T21:35:07.936Z,13.13
2022-10-09T21:37:37.526Z,13.12
2022-10-09T21:40:05.938Z,13.03
2022-10-09T21:42:33.676Z,13.00
2022-10-09T21:45:01.235Z,12.97
2022-10-09T21:47:29.998Z,12.97
2022-10-09T21:49:57.812Z,12.91
2022-10-09T21:52:25.501Z,12.86
2022-10-09T21:54:53.084Z,12.82
2022-10-09T21:57:20.993Z,12.79
2022-10-09T21:59:48.601Z,12.75
2022-10-09T22:02:16.353Z,12.59
2022-10-09T22:04:43.866Z,12.51
2022-10-09T22:07:11.726Z,12.47
2022-10-09T22:09:39.308Z,12.46
2022-10-09T22:12:06.871Z,12.35
2022-10-09T22:14:35.691Z,12.35
2022-10-09T22:17:03.764Z,12.27
2022-10-09T22:19:34.298Z,12.23
2022-10-09T22:22:01.951Z,12.19
2022-10-09T22:24:30.693Z,12.13
2022-10-09T22:26:59.522Z,12.09
2022-10-09T22:29:27.321Z,12.06
2022-10-09T22:31:54.945Z,12.02
2022-10-09T22:34:22.561Z,11.99
2022-10-09T22:36:50.422Z,11.92
2022-10-09T22:39:18.278Z,11.87
2022-10-09T22:41:45.958Z,11.93
2022-10-09T22:44:13.538Z,11.87
2022-10-09T22:46:43.643Z,11.80
2022-10-09T22:49:13.909Z,11.83
2022-10-09T22:51:41.861Z,11.84
2022-10-09T22:54:09.500Z,11.76
2022-10-09T22:56:38.932Z,11.75
2022-10-09T22:59:06.941Z,11.78
2022-10-09T23:01:37.447Z,11.81
2022-10-09T23:04:07.007Z,11.72
2022-10-09T23:06:34.825Z,11.72
2022-10-09T23:09:04.293Z,11.71
2022-10-09T23:11:32.067Z,11.64
2022-10-09T23:14:00.198Z,11.66
2022-10-09T23:16:31.522Z,11.62
2022-10-09T23:19:05.478Z,11.63
2022-10-09T23:21:34.522Z,11.66
2022-10-09T23:24:02.151Z,11.69
2022-10-09T23:26:31.305Z,11.68
2022-10-09T23:29:04.521Z,11.65
2022-10-09T23:31:32.901Z,11.64
2022-10-09T23:34:00.656Z,11.59
2022-10-09T23:36:29.069Z,11.58
2022-10-09T23:38:57.068Z,11.57
2022-10-09T23:41:25.868Z,11.54
2022-10-09T23:43:54.733Z,11.51
2022-10-09T23:46:24.725Z,11.55
2022-10-09T23:48:52.427Z,11.46
2022-10-09T23:51:20.570Z,11.49
2022-10-09T23:53:48.320Z,11.47
2022-10-09T23:56:26.508Z,11.44
2022-10-09T23:58:54.452Z,11.50
